createdAt,value
2023-03-30T00:00:20.000Z,77.9
2023-03-30T00:01:37.000Z,78.2
2023-03-30T00:02:53.000Z,78
2023-03-30T00:04:09.000Z,77.8
2023-03-30T00:05:25.000Z,77.9
2023-03-30T00:06:41.000Z,77.5
2023-03-30T00:07:58.000Z,77.6
2023-03-30T00:09:14.000Z,77.4
2023-03-30T00:10:30.000Z,77
2023-03-30T00:11:45.000Z,77.1
2023-03-30T00:13:01.000Z,77.5
2023-03-30T00:14:18.000Z,77.5
2023-03-30T00:15:34.000Z,77.4
2023-03-30T00:16:50.000Z,77.4
2023-03-30T00:18:06.000Z,77.1
2023-03-30T00:19:22.000Z,76.8
2023-03-30T00:20:38.000Z,76.7
2023-03-30T00:21:55.000Z,76.7
2023-03-30T00:23:11.000Z,76.2
2023-03-30T00:24:27.000Z,75.9
2023-03-30T00:25:43.000Z,75.5
2023-03-30T00:26:59.000Z,75.5
2023-03-30T00:28:15.000Z,75.4
2023-03-30T00:29:31.000Z,75.2
2023-03-30T00:30:47.000Z,75.1
2023-03-30T00:32:03.000Z,75.2
2023-03-30T00:33:19.000Z,75.3
2023-03-30T00:34:36.000Z,75
2023-03-30T00:35:52.000Z,74.9
2023-03-30T00:37:08.000Z,74.6
2023-03-30T00:38:24.000Z,74.4
2023-03-30T00:39:40.000Z,74.2
2023-03-30T00:40:56.000Z,74.1
2023-03-30T00:42:13.000Z,73.8
2023-03-30T00:43:29.000Z,73.6
2023-03-30T00:44:44.000Z,73.6
2023-03-30T00:46:00.000Z,73.3
2023-03-30T00:47:16.000Z,73.4
2023-03-30T00:48:33.000Z,73.4
2023-03-30T00:49:49.000Z,73.8
2023-03-30T00:51:05.000Z,73.6
2023-03-30T00:52:21.000Z,73.5
2023-03-30T00:53:37.000Z,73.6
2023-03-30T00:54:54.000Z,73.4
2023-03-30T00:56:10.000Z,73.3
2023-03-30T00:57:26.000Z,73.1
2023-03-30T00:58:42.000Z,73.2
2023-03-30T00:59:58.000Z,73
2023-03-30T01:01:14.000Z,72.6
2023-03-30T01:02:30.000Z,72.7
2023-03-30T01:03:46.000Z,72.4
2023-03-30T01:05:02.000Z,71.9
2023-03-30T01:06:18.000Z,71.7
2023-03-30T01:07:34.000Z,71.7
2023-03-30T01:08:51.000Z,71.6
2023-03-30T01:10:07.000Z,71.5
2023-03-30T01:11:23.000Z,71.3
2023-03-30T01:12:39.000Z,71.1
2023-03-30T01:13:55.000Z,71
2023-03-30T01:15:12.000Z,71.2
2023-03-30T01:16:28.000Z,71.1
2023-03-30T01:17:43.000Z,71.2
2023-03-30T01:18:59.000Z,71.4
2023-03-30T01:20:15.000Z,71.7
2023-03-30T01:21:32.000Z,72
2023-03-30T01:22:48.000Z,72.2
2023-03-30T01:24:04.000Z,72.2
2023-03-30T01:25:20.000Z,72.2
2023-03-30T01:26:36.000Z,71.7
2023-03-30T01:27:53.000Z,71.3
2023-03-30T01:29:09.000Z,71
2023-03-30T01:30:25.000Z,70.7
2023-03-30T01:31:41.000Z,70.8
2023-03-30T01:32:57.000Z,70.4
2023-03-30T01:34:12.000Z,70.5
2023-03-30T01:35:29.000Z,70.3
2023-03-30T01:36:45.000Z,70.1
2023-03-30T01:38:01.000Z,69.9
2023-03-30T01:39:17.000Z,70.1
2023-03-30T01:40:33.000Z,69.7
2023-03-30T01:41:50.000Z,69.8
2023-03-30T01:43:06.000Z,69.1
2023-03-30T01:44:22.000Z,68.9
2023-03-30T01:45:38.000Z,68.8
2023-03-30T01:46:54.000Z,68.6
2023-03-30T01:48:11.000Z,68.5
2023-03-30T01:49:27.000Z,68.4
2023-03-30T01:50:42.000Z,68.2
2023-03-30T01:51:58.000Z,67.8
2023-03-30T01:53:14.000Z,67.6
2023-03-30T01:54:31.000Z,67.5
2023-03-30T01:55:47.000Z,67.4
2023-03-30T01:57:03.000Z,66.9
2023-03-30T01:58:19.000Z,67.1
2023-03-30T01:59:35.000Z,67
2023-03-30T02:00:51.000Z,66.9
2023-03-30T02:02:08.000Z,66.7
2023-03-30T02:03:24.000Z,66.6
2023-03-30T02:04:40.000Z,66.8
2023-03-30T02:05:56.000Z,66.6
2023-03-30T02:07:11.000Z,66.4
2023-03-30T02:08:28.000Z,66.1
2023-03-30T02:09:44.000Z,65.6
2023-03-30T02:11:00.000Z,65.7
2023-03-30T02:12:16.000Z,65.7
2023-03-30T02:13:32.000Z,65.7
2023-03-30T02:14:49.000Z,65.8
2023-03-30T02:16:05.000Z,65.8
2023-03-30T02:17:21.000Z,65.6
2023-03-30T02:18:37.000Z,65.5
2023-03-30T02:19:53.000Z,65.5
2023-03-30T02:21:10.000Z,65.4
2023-03-30T02:22:26.000Z,65.3
2023-03-30T02:23:41.000Z,65.4
2023-03-30T02:24:57.000Z,65.4
2023-03-30T02:26:13.000Z,65.3
2023-03-30T02:27:29.000Z,65.7
2023-03-30T02:28:46.000Z,65.4
2023-03-30T02:30:02.000Z,65.9
2023-03-30T02:31:18.000Z,66.5
2023-03-30T02:32:34.000Z,67
2023-03-30T02:33:50.000Z,67
2023-03-30T02:35:07.000Z,66.5
2023-03-30T02:36:23.000Z,66.8
2023-03-30T02:37:39.000Z,66.7
2023-03-30T02:38:55.000Z,66.6
2023-03-30T02:40:10.000Z,66.3
2023-03-30T02:41:27.000Z,66.3
2023-03-30T02:42:43.000Z,66.3
2023-03-30T02:43:59.000Z,66.1
2023-03-30T02:45:15.000Z,66.2
2023-03-30T02:46:31.000Z,66
2023-03-30T02:47:47.000Z,66
2023-03-30T02:49:04.000Z,65.8
2023-03-30T02:50:20.000Z,65.5
2023-03-30T02:51:36.000Z,65.2
2023-03-30T02:52:52.000Z,65
2023-03-30T02:54:08.000Z,64.8
2023-03-30T02:55:25.000Z,64.8
2023-03-30T02:56:40.000Z,64.8
2023-03-30T02:57:56.000Z,64.7
2023-03-30T02:59:12.000Z,64.6
2023-03-30T03:00:28.000Z,64.5
2023-03-30T03:01:45.000Z,64.4
2023-03-30T03:03:01.000Z,64.5
2023-03-30T03:04:17.000Z,64.3
2023-03-30T03:05:33.000Z,64.6
2023-03-30T03:06:49.000Z,64.5
2023-03-30T03:08:06.000Z,64.3
2023-03-30T03:09:22.000Z,64.5
2023-03-30T03:10:38.000Z,64.4
2023-03-30T03:11:54.000Z,64.3
2023-03-30T03:13:09.000Z,64.6
2023-03-30T03:14:25.000Z,64.6
2023-03-30T03:15:42.000Z,64.7
2023-03-30T03:16:58.000Z,64.8
2023-03-30T03:18:14.000Z,64.7
2023-03-30T03:19:30.000Z,64.7
2023-03-30T03:20:46.000Z,64.9
2023-03-30T03:22:03.000Z,64.8
2023-03-30T03:23:19.000Z,64.7
2023-03-30T03:24:35.000Z,64.7
2023-03-30T03:25:51.000Z,64.7
2023-03-30T03:27:07.000Z,64.9
2023-03-30T03:28:24.000Z,64.9
2023-03-30T03:29:39.000Z,65
2023-03-30T03:30:55.000Z,65.1
2023-03-30T03:32:11.000Z,65.1
2023-03-30T03:33:27.000Z,65
2023-03-30T03:34:44.000Z,64.9
2023-03-30T03:36:00.000Z,65
2023-03-30T03:37:15.000Z,65.3
2023-03-30T03:38:31.000Z,65.3
2023-03-30T03:39:47.000Z,64.9
2023-03-30T03:41:03.000Z,65.1
2023-03-30T03:42:20.000Z,65.1
2023-03-30T03:43:36.000Z,65.4
2023-03-30T03:44:52.000Z,65.2
2023-03-30T03:46:08.000Z,65.3
2023-03-30T03:47:24.000Z,65.2
2023-03-30T03:48:41.000Z,65.5
2023-03-30T03:49:57.000Z,65.7
2023-03-30T03:51:13.000Z,65.9
2023-03-30T03:52:29.000Z,65.6
2023-03-30T03:53:44.000Z,65.5
2023-03-30T03:55:01.000Z,65.8
2023-03-30T03:56:17.000Z,66
2023-03-30T03:57:33.000Z,66
2023-03-30T04:00:05.000Z,65.9
2023-03-30T04:01:22.000Z,66
2023-03-30T04:02:38.000Z,65.8
2023-03-30T04:03:54.000Z,65.7
2023-03-30T04:05:10.000Z,65.5
2023-03-30T04:06:26.000Z,65.4
2023-03-30T04:07:42.000Z,65.3
2023-03-30T04:08:59.000Z,65.4
2023-03-30T04:10:14.000Z,65.7
2023-03-30T04:11:30.000Z,65.4
2023-03-30T04:12:46.000Z,65.4
2023-03-30T04:14:02.000Z,65.5
2023-03-30T04:15:19.000Z,65.6
2023-03-30T04:16:35.000Z,65.8
2023-03-30T04:17:51.000Z,65.5
2023-03-30T04:19:07.000Z,65.4
2023-03-30T04:20:23.000Z,65.2
2023-03-30T04:21:40.000Z,64.7
2023-03-30T04:22:56.000Z,64.4
2023-03-30T04:24:12.000Z,64.3
2023-03-30T04:25:28.000Z,64.1
2023-03-30T04:26:43.000Z,64
2023-03-30T04:28:00.000Z,63.9
2023-03-30T04:29:16.000Z,63.5
2023-03-30T04:30:32.000Z,63.6
2023-03-30T04:31:48.000Z,63.4
2023-03-30T04:33:04.000Z,63.6
2023-03-30T04:34:20.000Z,63.6
2023-03-30T04:35:37.000Z,63.5
2023-03-30T04:36:53.000Z,63.7
2023-03-30T04:38:09.000Z,63.5
2023-03-30T04:39:25.000Z,63.2
2023-03-30T04:40:41.000Z,63.8
2023-03-30T04:41:58.000Z,63.8
2023-03-30T04:43:13.000Z,63.6
2023-03-30T04:44:29.000Z,63.6
2023-03-30T04:45:45.000Z,63.7
2023-03-30T04:47:01.000Z,64.1
2023-03-30T04:48:18.000Z,64.1
2023-03-30T04:49:34.000Z,64.1
2023-03-30T04:50:50.000Z,64.1
2023-03-30T04:52:06.000Z,64
2023-03-30T04:53:22.000Z,64.1
2023-03-30T04:54:39.000Z,64.1
2023-03-30T04:55:55.000Z,64.4
2023-03-30T04:57:11.000Z,64.4
2023-03-30T04:58:27.000Z,64.3
2023-03-30T04:59:42.000Z,64.2
2023-03-30T05:00:58.000Z,63.7
2023-03-30T05:02:15.000Z,63.9
2023-03-30T05:03:31.000Z,64.1
2023-03-30T05:04:47.000Z,64.1
2023-03-30T05:06:03.648Z,64.1
2023-03-30T05:07:19.000Z,64.1
2023-03-30T05:08:36.000Z,64.1
2023-03-30T05:09:52.000Z,64.3
2023-03-30T05:11:08.000Z,64.5
2023-03-30T05:12:24.000Z,64.5
2023-03-30T05:13:40.000Z,64.3
2023-03-30T05:14:57.000Z,64.3
2023-03-30T05:16:12.000Z,64.2
2023-03-30T05:17:28.000Z,64.3
2023-03-30T05:18:44.000Z,64.2
2023-03-30T05:20:00.000Z,64.4
2023-03-30T05:21:17.000Z,64.3
2023-03-30T05:22:33.000Z,64.3
2023-03-30T05:23:49.000Z,64.3
2023-03-30T05:25:05.000Z,64.1
2023-03-30T05:26:21.000Z,64.3
2023-03-30T05:27:37.000Z,64.3
2023-03-30T05:28:54.000Z,64.8
2023-03-30T05:30:10.000Z,64.7
2023-03-30T05:31:26.000Z,64.6
2023-03-30T05:32:41.000Z,64.4
2023-03-30T05:33:57.000Z,64.4
2023-03-30T05:35:14.000Z,64.4
2023-03-30T05:36:30.000Z,64.7
2023-03-30T05:37:46.000Z,64.6
2023-03-30T05:39:02.000Z,64.5
2023-03-30T05:40:18.000Z,64.5
2023-03-30T05:41:35.000Z,64.8
2023-03-30T05:42:51.000Z,65
2023-03-30T05:44:07.000Z,64.7
2023-03-30T05:45:23.000Z,65
2023-03-30T05:46:39.000Z,65
2023-03-30T05:47:55.000Z,65
2023-03-30T05:49:11.000Z,65
2023-03-30T05:50:27.000Z,65
2023-03-30T05:51:43.000Z,64.8
2023-03-30T05:52:59.000Z,65
2023-03-30T05:54:15.000Z,65
2023-03-30T05:55:32.000Z,64.6
2023-03-30T05:56:48.000Z,64.8
2023-03-30T05:58:04.000Z,64.6
2023-03-30T05:59:20.000Z,64.7
2023-03-30T06:00:36.000Z,64.4
2023-03-30T06:01:53.000Z,64.3
2023-03-30T06:03:09.000Z,64.5
2023-03-30T06:04:25.000Z,64.2
2023-03-30T06:05:40.000Z,64.5
2023-03-30T06:06:56.000Z,64.3
2023-03-30T06:08:13.000Z,64.2
2023-03-30T06:09:29.000Z,64.3
2023-03-30T06:10:45.000Z,64.5
2023-03-30T06:12:01.000Z,64.8
2023-03-30T06:13:17.000Z,64.4
2023-03-30T06:14:33.000Z,64.4
2023-03-30T06:15:50.000Z,64.5
2023-03-30T06:17:06.000Z,64.5
2023-03-30T06:18:22.000Z,64.4
2023-03-30T06:19:38.000Z,64.2
2023-03-30T06:20:54.000Z,64.2
2023-03-30T06:22:10.000Z,64.3
2023-03-30T06:23:26.000Z,64.3
2023-03-30T06:24:42.000Z,64.3
2023-03-30T06:25:58.000Z,64.4
2023-03-30T06:27:14.000Z,64.4
2023-03-30T06:28:31.000Z,64.5
2023-03-30T06:29:47.000Z,64.5
2023-03-30T06:31:03.000Z,64.4
2023-03-30T06:32:19.000Z,64.4
2023-03-30T06:33:35.000Z,64.3
2023-03-30T06:34:52.000Z,64.4
2023-03-30T06:36:08.000Z,64.5
2023-03-30T06:37:24.000Z,64.5
2023-03-30T06:38:39.000Z,64.4
2023-03-30T06:39:55.000Z,64.4
2023-03-30T06:41:12.000Z,64.4
2023-03-30T06:42:28.000Z,64.5
2023-03-30T06:43:44.000Z,64.6
2023-03-30T06:45:00.000Z,64.7
2023-03-30T06:46:16.000Z,64.4
2023-03-30T06:47:32.000Z,64.5
2023-03-30T06:48:49.000Z,64.6
2023-03-30T06:50:05.000Z,64.5
2023-03-30T06:51:21.000Z,64.1
2023-03-30T06:52:37.000Z,64
2023-03-30T06:53:53.000Z,64.2
2023-03-30T06:55:09.000Z,64
2023-03-30T06:56:25.000Z,63.9
2023-03-30T06:57:41.000Z,64
2023-03-30T06:58:57.000Z,64.3
2023-03-30T07:00:13.000Z,64.1
2023-03-30T07:01:30.000Z,64.4
2023-03-30T07:02:46.000Z,64.2
2023-03-30T07:04:02.000Z,63.8
2023-03-30T07:05:18.000Z,64.2
2023-03-30T07:06:34.000Z,63.9
2023-03-30T07:07:51.000Z,63.9
2023-03-30T07:09:07.000Z,64.4
2023-03-30T07:10:23.000Z,64.2
2023-03-30T07:11:38.000Z,64.5
2023-03-30T07:12:54.000Z,64.4
2023-03-30T07:14:10.000Z,64.3
2023-03-30T07:15:27.000Z,64.4
2023-03-30T07:16:43.000Z,64.7
2023-03-30T07:17:59.000Z,64.9
2023-03-30T07:19:15.000Z,64.7
2023-03-30T07:20:31.000Z,64.7
2023-03-30T07:21:48.000Z,65.2
2023-03-30T07:23:04.000Z,66
2023-03-30T07:24:20.000Z,66.9
2023-03-30T07:25:36.000Z,68.2
2023-03-30T07:26:52.000Z,68.5
2023-03-30T07:28:08.000Z,68.7
2023-03-30T07:29:24.000Z,69.1
2023-03-30T07:30:40.000Z,72.6
2023-03-30T07:31:56.000Z,74.8
2023-03-30T07:33:12.000Z,76.5
2023-03-30T07:34:29.000Z,77.4
2023-03-30T07:35:45.000Z,78.7
2023-03-30T07:37:01.000Z,80.3
2023-03-30T07:38:17.000Z,81
2023-03-30T07:39:33.000Z,82.6
2023-03-30T07:40:49.000Z,83.1
2023-03-30T07:42:06.000Z,83.6
2023-03-30T07:43:22.000Z,84.1
2023-03-30T07:44:37.000Z,83.3
2023-03-30T07:45:53.000Z,84
2023-03-30T07:47:09.000Z,83.1
2023-03-30T07:48:26.000Z,83
2023-03-30T07:49:42.000Z,81
2023-03-30T07:50:58.000Z,81.1
2023-03-30T07:52:13.000Z,80.6
2023-03-30T07:53:29.000Z,79.8
2023-03-30T07:54:46.000Z,79.4
2023-03-30T07:56:02.000Z,79.5
2023-03-30T07:57:18.000Z,78.8
2023-03-30T07:58:34.000Z,79.2
2023-03-30T07:59:50.000Z,79.7
2023-03-30T08:01:07.000Z,81.5
2023-03-30T08:02:23.000Z,82.6
2023-03-30T08:03:39.000Z,84.6
2023-03-30T08:04:55.000Z,85
2023-03-30T08:06:11.000Z,85.7
2023-03-30T08:07:28.000Z,85.8
2023-03-30T08:08:43.000Z,87.5
2023-03-30T08:09:59.000Z,86.4
2023-03-30T08:11:15.000Z,86.9
2023-03-30T08:12:31.000Z,87.2
2023-03-30T08:13:47.000Z,87.1
2023-03-30T08:15:04.000Z,87.8
2023-03-30T08:16:20.000Z,87.4
2023-03-30T08:17:36.000Z,87.8
2023-03-30T08:18:52.000Z,87.1
2023-03-30T08:20:08.000Z,86.9
2023-03-30T08:21:25.000Z,87.1
2023-03-30T08:22:41.000Z,87.2
2023-03-30T08:23:57.000Z,87.2
2023-03-30T08:25:12.000Z,86.8
2023-03-30T08:26:28.000Z,87.1
2023-03-30T08:27:45.000Z,86.8
2023-03-30T08:29:01.000Z,86.9
2023-03-30T08:30:17.000Z,87.9
2023-03-30T08:31:33.000Z,89.2
2023-03-30T08:32:49.000Z,89.7
2023-03-30T08:34:06.000Z,90.2
2023-03-30T08:35:22.000Z,90.5
2023-03-30T08:36:38.000Z,90.9
2023-03-30T08:37:54.000Z,90.4
2023-03-30T08:39:10.000Z,90.9
2023-03-30T08:40:26.000Z,90.9
2023-03-30T08:41:42.000Z,91.3
2023-03-30T08:42:58.000Z,91.5
2023-03-30T08:44:14.000Z,91.9
2023-03-30T08:45:30.000Z,92.2
2023-03-30T08:46:46.000Z,92.4
2023-03-30T08:48:03.000Z,92.5
2023-03-30T08:49:19.000Z,92.4
2023-03-30T08:50:35.000Z,92.2
2023-03-30T08:51:51.000Z,92.5
2023-03-30T08:53:07.000Z,92.1
2023-03-30T08:54:24.000Z,92.1
2023-03-30T08:55:40.000Z,91.8
2023-03-30T08:56:56.000Z,91.9
2023-03-30T08:58:11.000Z,91.6
2023-03-30T08:59:27.000Z,91.8
2023-03-30T09:00:44.000Z,91.3
2023-03-30T09:02:00.000Z,91
2023-03-30T09:03:16.000Z,90.1
2023-03-30T09:04:32.000Z,89.6
2023-03-30T09:05:48.000Z,89.4
2023-03-30T09:07:05.000Z,88.8
2023-03-30T09:08:21.000Z,89.1
2023-03-30T09:09:37.000Z,89.1
2023-03-30T09:10:53.000Z,88.2
2023-03-30T09:12:09.000Z,88.1
2023-03-30T09:13:25.000Z,88.5
2023-03-30T09:14:41.000Z,88
2023-03-30T09:15:57.000Z,87
2023-03-30T09:17:13.000Z,88
2023-03-30T09:18:29.000Z,86.8
2023-03-30T09:19:45.000Z,87.2
2023-03-30T09:21:02.000Z,86.3
2023-03-30T09:22:18.000Z,85.6
2023-03-30T09:23:34.000Z,85.5
2023-03-30T09:24:50.000Z,84.8
2023-03-30T09:26:06.000Z,84.3
2023-03-30T09:27:23.000Z,83.8
2023-03-30T09:28:39.000Z,82.8
2023-03-30T09:29:55.000Z,82.7
2023-03-30T09:31:10.000Z,82.2
2023-03-30T09:32:26.000Z,80.7
2023-03-30T09:33:43.000Z,81
2023-03-30T09:34:59.000Z,80.4
2023-03-30T09:36:15.000Z,80.2
2023-03-30T09:37:31.000Z,78.2
2023-03-30T09:38:47.000Z,79.3
2023-03-30T09:40:03.000Z,76.3
2023-03-30T09:41:20.000Z,75.7
2023-03-30T09:42:36.000Z,75.3
2023-03-30T09:43:52.000Z,76.2
2023-03-30T09:45:08.000Z,76
2023-03-30T09:46:24.000Z,75.3
2023-03-30T09:47:40.000Z,75.4
2023-03-30T09:48:56.000Z,74
2023-03-30T09:50:12.000Z,72.1
2023-03-30T09:51:28.000Z,71.9
2023-03-30T09:52:44.000Z,72.3
2023-03-30T09:54:01.000Z,70.7
2023-03-30T09:55:17.000Z,71.8
2023-03-30T09:56:33.000Z,70.8
2023-03-30T09:57:49.000Z,71.4
2023-03-30T09:59:05.000Z,69.6
2023-03-30T10:00:22.000Z,70.7
2023-03-30T10:01:38.000Z,71
2023-03-30T10:02:54.000Z,71.1
2023-03-30T10:04:09.000Z,69.8
2023-03-30T10:05:25.000Z,69.4
2023-03-30T10:06:42.000Z,70.6
2023-03-30T10:07:58.000Z,71.1
2023-03-30T10:09:14.000Z,70.6
2023-03-30T10:10:30.000Z,70.9
2023-03-30T10:11:46.000Z,71.1
2023-03-30T10:13:02.000Z,71.3
2023-03-30T10:14:19.000Z,70.3
2023-03-30T10:15:35.000Z,70.5
2023-03-30T10:16:51.000Z,70.2
2023-03-30T10:19:23.000Z,68.9
2023-03-30T10:20:39.000Z,68.7
2023-03-30T10:21:55.000Z,69.4
2023-03-30T10:23:11.000Z,68.7
2023-03-30T10:24:27.000Z,69.1
2023-03-30T10:25:43.000Z,69.4
2023-03-30T10:27:00.000Z,69.5
2023-03-30T10:28:16.000Z,69.1
2023-03-30T10:29:32.000Z,68.7
2023-03-30T10:30:48.000Z,69.7
2023-03-30T10:32:04.000Z,69.3
2023-03-30T10:33:21.000Z,68.7
2023-03-30T10:34:37.000Z,69.1
2023-03-30T10:35:53.000Z,67.6
2023-03-30T10:37:08.000Z,66.8
2023-03-30T10:38:24.000Z,65.6
2023-03-30T10:39:40.000Z,66.5
2023-03-30T10:40:57.000Z,65.5
2023-03-30T10:42:13.000Z,64.1
2023-03-30T10:43:29.000Z,64
2023-03-30T10:44:45.000Z,63.8
2023-03-30T10:46:01.000Z,64.2
2023-03-30T10:47:18.000Z,63.5
2023-03-30T10:48:34.000Z,63
2023-03-30T10:49:50.000Z,63
2023-03-30T10:51:06.000Z,64.5
2023-03-30T10:52:22.000Z,65.7
2023-03-30T10:53:38.000Z,65.4
2023-03-30T10:54:54.000Z,65.8
2023-03-30T10:56:10.000Z,65.5
2023-03-30T10:57:26.000Z,65.9
2023-03-30T10:58:42.000Z,67.1
2023-03-30T10:59:59.000Z,66.8
2023-03-30T11:01:15.000Z,67.2
2023-03-30T11:02:31.000Z,67.1
2023-03-30T11:03:47.000Z,67.7
2023-03-30T11:05:03.000Z,68.1
2023-03-30T11:06:20.000Z,68.3
2023-03-30T11:07:36.000Z,68.3
2023-03-30T11:08:52.000Z,68.1
2023-03-30T11:10:07.000Z,67.8
2023-03-30T11:11:23.000Z,68
2023-03-30T11:12:39.000Z,67.9
2023-03-30T11:13:56.000Z,67.5
2023-03-30T11:15:12.000Z,68.2
2023-03-30T11:16:28.000Z,68.8
2023-03-30T11:17:44.000Z,69.2
2023-03-30T11:19:00.000Z,69
2023-03-30T11:20:17.000Z,68
2023-03-30T11:21:33.000Z,68
2023-03-30T11:22:49.000Z,68.2
2023-03-30T11:24:05.000Z,68.4
2023-03-30T11:25:21.000Z,67.1
2023-03-30T11:26:37.000Z,66.1
2023-03-30T11:27:53.000Z,66.7
2023-03-30T11:29:09.000Z,65
2023-03-30T11:30:25.000Z,64.3
2023-03-30T11:31:41.000Z,63.8
2023-03-30T11:32:58.000Z,63.4
2023-03-30T11:34:14.000Z,63.6
2023-03-30T11:35:30.000Z,63.5
2023-03-30T11:36:46.000Z,63.3
2023-03-30T11:38:02.000Z,62.8
2023-03-30T11:39:18.000Z,62.1
2023-03-30T11:40:35.000Z,62.1
2023-03-30T11:41:51.000Z,60.5
2023-03-30T11:43:06.000Z,61.3
2023-03-30T11:44:22.000Z,60.8
2023-03-30T11:45:38.000Z,62.4
2023-03-30T11:46:55.000Z,61.3
2023-03-30T11:48:11.000Z,59.7
2023-03-30T11:49:27.484Z,60.5
2023-03-30T11:50:43.000Z,61.4
2023-03-30T11:51:59.000Z,60.3
2023-03-30T11:53:16.000Z,61.9
2023-03-30T11:54:32.000Z,61.3
2023-03-30T11:55:48.000Z,62.9
2023-03-30T11:57:04.000Z,63.1
2023-03-30T11:58:20.000Z,63.5
2023-03-30T11:59:36.000Z,62.8
2023-03-30T12:00:52.000Z,63.5
2023-03-30T12:02:08.000Z,63.1
2023-03-30T12:03:24.000Z,63.1
2023-03-30T12:04:40.000Z,62.4
2023-03-30T12:05:57.000Z,62.5
2023-03-30T12:07:12.000Z,62.6
2023-03-30T12:08:28.000Z,63.6
2023-03-30T12:09:44.000Z,64.1
2023-03-30T12:11:00.000Z,63.9
2023-03-30T12:12:16.000Z,64
2023-03-30T12:13:33.000Z,62
2023-03-30T12:14:49.000Z,59.4
2023-03-30T12:16:05.000Z,58.8
2023-03-30T12:17:21.000Z,58
2023-03-30T12:18:37.000Z,56.6
2023-03-30T12:19:54.000Z,55.5
2023-03-30T12:21:10.000Z,55.1
2023-03-30T12:22:26.000Z,56.7
2023-03-30T12:23:41.000Z,58
2023-03-30T12:24:57.000Z,59.3
2023-03-30T12:26:14.000Z,58.8
2023-03-30T12:27:30.000Z,59.1
2023-03-30T12:28:46.000Z,58.7
2023-03-30T12:30:02.000Z,58.7
2023-03-30T12:31:18.000Z,62.1
2023-03-30T12:32:35.000Z,67.3
2023-03-30T12:33:51.000Z,70.3
2023-03-30T12:35:07.000Z,72.1
2023-03-30T12:36:23.000Z,71.8
2023-03-30T12:37:39.000Z,72.2
2023-03-30T12:38:55.000Z,71.9
2023-03-30T12:40:11.000Z,69.7
2023-03-30T12:41:27.000Z,67.6
2023-03-30T12:42:43.000Z,65.5
2023-03-30T12:43:59.000Z,63.4
2023-03-30T12:45:15.000Z,62.3
2023-03-30T12:46:32.000Z,60.8
2023-03-30T12:47:48.000Z,60
2023-03-30T12:49:04.000Z,60.7
2023-03-30T12:50:20.000Z,60.4
2023-03-30T12:51:36.000Z,61.1
2023-03-30T12:52:53.000Z,60.7
2023-03-30T12:54:09.000Z,59.1
2023-03-30T12:55:25.000Z,59.6
2023-03-30T12:56:40.000Z,59.5
2023-03-30T12:57:56.000Z,58.9
2023-03-30T12:59:13.000Z,59.6
2023-03-30T13:00:29.000Z,60.6
2023-03-30T13:01:45.000Z,62.4
2023-03-30T13:03:01.000Z,64
2023-03-30T13:04:17.000Z,65.9
2023-03-30T13:05:34.000Z,69.3
2023-03-30T13:06:50.000Z,69.7
2023-03-30T13:08:06.000Z,72.5
2023-03-30T13:09:22.000Z,73.3
2023-03-30T13:10:38.000Z,76
2023-03-30T13:11:54.000Z,78.1
2023-03-30T13:13:10.000Z,79.6
2023-03-30T13:14:26.000Z,81
2023-03-30T13:15:42.000Z,78.8
2023-03-30T13:16:58.000Z,76.4
2023-03-30T13:18:14.000Z,75
2023-03-30T13:19:31.000Z,73.3
2023-03-30T13:20:47.000Z,71.3
2023-03-30T13:22:03.000Z,70.8
2023-03-30T13:23:19.000Z,72.5
2023-03-30T13:24:35.000Z,74.1
2023-03-30T13:25:52.000Z,73.7
2023-03-30T13:27:08.000Z,72.4
2023-03-30T13:28:24.000Z,73.3
2023-03-30T13:29:39.000Z,72.9
2023-03-30T13:30:55.000Z,73.6
2023-03-30T13:32:12.000Z,71.9
2023-03-30T13:33:28.000Z,70.5
2023-03-30T13:34:44.000Z,68.4
2023-03-30T13:36:00.000Z,67.6
2023-03-30T13:37:16.000Z,68.3
2023-03-30T13:38:33.000Z,65.8
2023-03-30T13:39:49.000Z,66.2
2023-03-30T13:41:05.000Z,65.2
2023-03-30T13:42:21.000Z,65.4
2023-03-30T13:43:37.000Z,66
2023-03-30T13:44:53.000Z,64.4
2023-03-30T13:46:09.000Z,63.8
2023-03-30T13:47:25.000Z,64.3
2023-03-30T13:48:41.000Z,64.3
2023-03-30T13:49:57.000Z,64.3
2023-03-30T13:51:13.000Z,65.2
2023-03-30T13:52:30.000Z,65.9
2023-03-30T13:53:46.000Z,64.7
2023-03-30T13:55:02.000Z,64.9
2023-03-30T13:56:18.000Z,65.5
2023-03-30T13:57:34.000Z,65.5
2023-03-30T13:58:51.000Z,65.6
2023-03-30T14:00:07.000Z,66.7
2023-03-30T14:01:23.000Z,65.7
2023-03-30T14:02:38.000Z,65.3
2023-03-30T14:03:54.000Z,68.6
2023-03-30T14:05:11.000Z,67.6
2023-03-30T14:06:27.000Z,70.4
2023-03-30T14:07:43.000Z,72.2
2023-03-30T14:08:59.000Z,75.6
2023-03-30T14:10:15.000Z,79
2023-03-30T14:11:31.000Z,83.1
2023-03-30T14:12:48.000Z,84.6
2023-03-30T14:14:04.000Z,87
2023-03-30T14:15:20.000Z,88
2023-03-30T14:16:36.000Z,88.3
2023-03-30T14:17:52.000Z,89.2
2023-03-30T14:19:08.000Z,89.4
2023-03-30T14:20:24.000Z,89.8
2023-03-30T14:21:40.000Z,89.3
2023-03-30T14:22:56.000Z,88.6
2023-03-30T14:24:12.000Z,89.4
2023-03-30T14:25:29.000Z,89.7
2023-03-30T14:26:45.000Z,89.9
2023-03-30T14:28:01.000Z,87.5
2023-03-30T14:29:17.000Z,87.8
2023-03-30T14:30:33.000Z,88.3
2023-03-30T14:31:50.000Z,87.8
2023-03-30T14:33:06.000Z,86.3
2023-03-30T14:34:22.000Z,88.4
2023-03-30T14:35:37.000Z,86.2
2023-03-30T14:36:53.000Z,82.1
2023-03-30T14:38:10.000Z,83.4
2023-03-30T14:39:26.000Z,82.8
2023-03-30T14:40:42.000Z,81.4
2023-03-30T14:41:58.000Z,82.6
2023-03-30T14:43:14.000Z,81.3
2023-03-30T14:44:30.000Z,82.3
2023-03-30T14:45:47.000Z,81
2023-03-30T14:47:03.000Z,82.2
2023-03-30T14:48:19.000Z,78.7
2023-03-30T14:49:35.000Z,79.6
2023-03-30T14:50:51.000Z,79
2023-03-30T14:52:07.000Z,76.5
2023-03-30T14:53:23.000Z,76.8
2023-03-30T14:54:39.000Z,77.4
2023-03-30T14:55:55.000Z,77.2
2023-03-30T14:57:11.000Z,77.5
2023-03-30T14:58:28.000Z,75.3
2023-03-30T14:59:44.000Z,74
2023-03-30T15:01:00.000Z,73.5
2023-03-30T15:02:16.000Z,75.3
2023-03-30T15:03:32.000Z,75.2
2023-03-30T15:04:49.000Z,76.7
2023-03-30T15:06:05.000Z,77.3
2023-03-30T15:07:21.000Z,75.1
2023-03-30T15:08:36.000Z,75.2
2023-03-30T15:09:52.000Z,73.7
2023-03-30T15:11:08.000Z,76.4
2023-03-30T15:12:25.000Z,77.3
2023-03-30T15:13:41.000Z,76.3
2023-03-30T15:14:57.000Z,78
2023-03-30T15:16:13.000Z,78.2
2023-03-30T15:17:29.000Z,79.3
2023-03-30T15:18:46.000Z,78.9
2023-03-30T15:20:02.000Z,79.5
2023-03-30T15:21:18.000Z,81.2
2023-03-30T15:22:34.000Z,81.9
2023-03-30T15:23:50.000Z,82.9
2023-03-30T15:25:06.000Z,83.1
2023-03-30T15:26:22.000Z,82.1
2023-03-30T15:27:38.000Z,81.7
2023-03-30T15:28:54.000Z,83.4
2023-03-30T15:30:10.000Z,82.8
2023-03-30T15:31:27.000Z,84.5
2023-03-30T15:32:43.000Z,84.2
2023-03-30T15:33:59.000Z,82.7
2023-03-30T15:35:15.000Z,81.2
2023-03-30T15:36:31.000Z,81
2023-03-30T15:37:48.000Z,82.4
2023-03-30T15:39:04.000Z,82.5
2023-03-30T15:40:20.000Z,80.5
2023-03-30T15:41:35.000Z,80.7
2023-03-30T15:42:51.000Z,81.2
2023-03-30T15:44:07.000Z,81.5
2023-03-30T15:45:24.000Z,81.4
2023-03-30T15:46:40.000Z,80.8
2023-03-30T15:47:56.000Z,79.8
2023-03-30T15:49:12.000Z,79.2
2023-03-30T15:50:28.000Z,78.1
2023-03-30T15:51:45.000Z,79.2
2023-03-30T15:53:01.000Z,77.1
2023-03-30T15:54:17.000Z,76.5
2023-03-30T15:55:33.000Z,75.2
2023-03-30T15:56:49.000Z,74.2
2023-03-30T15:58:05.000Z,75.1
2023-03-30T15:59:21.000Z,76.9
2023-03-30T16:00:37.000Z,77.3
2023-03-30T16:01:53.000Z,77.8
2023-03-30T16:03:09.000Z,76.9
2023-03-30T16:04:26.000Z,76.2
2023-03-30T16:05:42.000Z,76.1
2023-03-30T16:06:58.000Z,76.2
2023-03-30T16:08:14.000Z,76.3
2023-03-30T16:09:30.000Z,76.7
2023-03-30T16:10:46.000Z,76.9
2023-03-30T16:12:03.000Z,75.8
2023-03-30T16:13:19.000Z,76.7
2023-03-30T16:14:34.000Z,76.3
2023-03-30T16:15:50.000Z,77.2
2023-03-30T16:17:06.000Z,78.6
2023-03-30T16:18:23.000Z,81.6
2023-03-30T16:19:39.000Z,83.9
2023-03-30T16:20:55.000Z,85.5
2023-03-30T16:22:10.000Z,85.7
2023-03-30T16:23:26.000Z,86.5
2023-03-30T16:24:43.000Z,87.8
2023-03-30T16:25:59.000Z,86.8
2023-03-30T16:27:15.000Z,84.7
2023-03-30T16:28:31.000Z,83.8
2023-03-30T16:29:47.000Z,83.5
2023-03-30T16:31:04.000Z,82
2023-03-30T16:32:20.000Z,80.9
2023-03-30T16:33:36.000Z,81.3
2023-03-30T16:34:52.000Z,81.7
2023-03-30T16:36:08.000Z,80
2023-03-30T16:37:24.000Z,81.3
2023-03-30T16:38:40.000Z,80.6
2023-03-30T16:39:56.000Z,80.6
2023-03-30T16:41:12.000Z,80.4
2023-03-30T16:42:28.000Z,79.5
2023-03-30T16:43:44.000Z,78.6
2023-03-30T16:45:01.000Z,80.3
2023-03-30T16:46:17.000Z,80.8
2023-03-30T16:47:33.000Z,81
2023-03-30T16:48:49.000Z,81.5
2023-03-30T16:50:05.000Z,81.2
2023-03-30T16:51:22.000Z,80.9
2023-03-30T16:52:38.000Z,81.3
2023-03-30T16:53:54.000Z,80.3
2023-03-30T16:55:09.000Z,80.9
2023-03-30T16:56:25.000Z,80.3
2023-03-30T16:57:42.000Z,80.9
2023-03-30T16:58:58.000Z,82.9
2023-03-30T17:00:14.000Z,82.9
2023-03-30T17:01:30.000Z,82.1